createdAt,value
2022-08-05T00:00:16.879Z,47.42
2022-08-05T00:03:03.889Z,47.49
2022-08-05T00:06:05.365Z,47.40
2022-08-05T00:08:35.132Z,47.55
2022-08-05T00:11:20.828Z,47.98
2022-08-05T00:13:56.995Z,48.21
2022-08-05T00:16:35.397Z,48.28
2022-08-05T00:19:04.228Z,48.23
2022-08-05T00:21:31.379Z,47.99
2022-08-05T00:24:10.741Z,48.05
2022-08-05T00:26:38.641Z,47.99
2022-08-05T00:29:05.505Z,48.00
2022-08-05T00:31:53.400Z,48.24
2022-08-05T00:34:53.628Z,48.25
2022-08-05T00:37:11.754Z,48.37
2022-08-05T00:39:57.138Z,48.58
2022-08-05T00:42:41.759Z,48.83
2022-08-05T00:45:11.775Z,48.68
2022-08-05T00:47:56.585Z,49.21
2022-08-05T00:50:25.428Z,49.03
2022-08-05T00:52:55.115Z,48.82
2022-08-05T00:55:23.226Z,48.74
2022-08-05T00:58:02.174Z,48.94
2022-08-05T01:00:32.136Z,48.81
2022-08-05T01:03:00.952Z,48.49
2022-08-05T01:05:28.114Z,48.45
2022-08-05T01:08:41.464Z,48.31
2022-08-05T01:11:07.785Z,48.37
2022-08-05T01:13:58.356Z,48.25
2022-08-05T01:16:40.316Z,48.69
2022-08-05T01:20:01.823Z,49.16
2022-08-05T01:22:57.485Z,49.31
2022-08-05T01:26:04.200Z,49.17
2022-08-05T01:28:42.543Z,49.62
2022-08-05T01:31:09.482Z,49.59
2022-08-05T01:33:48.924Z,49.64
2022-08-05T01:36:28.148Z,49.60
2022-08-05T01:39:00.112Z,49.94
2022-08-05T01:41:30.839Z,50.04
2022-08-05T01:44:01.094Z,50.05
2022-08-05T01:46:42.850Z,50.33
2022-08-05T01:49:24.229Z,49.76
2022-08-05T01:51:59.484Z,49.96
2022-08-05T01:54:49.571Z,50.42
2022-08-05T01:58:13.192Z,50.27
2022-08-05T02:00:14.734Z,50.84
2022-08-05T02:02:54.440Z,51.15
2022-08-05T02:05:28.598Z,51.43
2022-08-05T02:08:01.581Z,51.47
2022-08-05T02:10:36.245Z,52.33
2022-08-05T02:13:16.378Z,52.82
2022-08-05T02:15:53.318Z,52.89
2022-08-05T02:18:34.298Z,52.68
2022-08-05T02:21:17.937Z,53.30
2022-08-05T02:24:05.371Z,53.98
2022-08-05T02:26:54.107Z,54.08
2022-08-05T02:29:58.247Z,54.38
2022-08-05T02:32:23.991Z,54.67
2022-08-05T02:34:59.838Z,55.13
2022-08-05T02:37:34.540Z,54.93
2022-08-05T02:40:02.763Z,55.39
2022-08-05T02:42:36.111Z,55.86
2022-08-05T02:45:04.199Z,55.95
2022-08-05T02:47:58.475Z,55.90
2022-08-05T02:50:23.765Z,55.68
2022-08-05T02:52:52.161Z,56.26
2022-08-05T02:55:52.220Z,56.67
2022-08-05T02:58:09.460Z,56.93
2022-08-05T03:00:48.471Z,57.35
2022-08-05T03:03:19.890Z,56.70
2022-08-05T03:06:56.815Z,56.49
2022-08-05T03:08:42.547Z,56.91
2022-08-05T03:11:56.316Z,56.79
2022-08-05T03:14:08.299Z,55.57
2022-08-05T03:16:35.921Z,56.64
2022-08-05T03:19:12.928Z,57.81
2022-08-05T03:21:51.362Z,57.61
2022-08-05T03:24:29.657Z,57.72
2022-08-05T03:26:59.696Z,58.98
2022-08-05T03:29:45.837Z,59.21
2022-08-05T03:32:15.811Z,59.20
2022-08-05T03:34:49.603Z,59.58
2022-08-05T03:37:20.255Z,59.31
2022-08-05T03:40:00.999Z,59.43
2022-08-05T03:42:32.486Z,59.92
2022-08-05T03:45:01.751Z,60.14
2022-08-05T03:47:47.673Z,59.63
2022-08-05T03:50:16.243Z,59.58
2022-08-05T03:54:59.288Z,59.78
2022-08-05T03:56:17.165Z,59.74
2022-08-05T03:58:59.631Z,59.60
2022-08-05T04:01:32.275Z,59.62
2022-08-05T04:04:09.281Z,60.25
2022-08-05T04:06:47.488Z,60.87
2022-08-05T04:09:20.334Z,60.95
2022-08-05T04:11:56.413Z,60.91
2022-08-05T04:14:30.554Z,60.72
2022-08-05T04:17:02.137Z,60.65
2022-08-05T04:19:30.400Z,60.50
2022-08-05T04:22:10.039Z,60.24
2022-08-05T04:24:52.944Z,60.29
2022-08-05T04:27:42.179Z,59.47
2022-08-05T04:30:08.683Z,59.58
2022-08-05T04:32:35.926Z,59.30
2022-08-05T04:35:04.733Z,60.12
2022-08-05T04:38:02.181Z,60.34
2022-08-05T04:40:21.576Z,59.81
2022-08-05T04:42:48.342Z,59.75
2022-08-05T04:45:31.343Z,59.47
2022-08-05T04:48:16.534Z,59.51
2022-08-05T04:51:03.365Z,58.62
2022-08-05T04:53:39.159Z,58.82
2022-08-05T04:56:32.699Z,59.04
2022-08-05T04:58:54.356Z,58.77
2022-08-05T05:01:33.635Z,58.42
2022-08-05T05:04:08.121Z,56.92
2022-08-05T05:06:40.506Z,56.49
2022-08-05T05:09:14.004Z,55.91
2022-08-05T05:11:54.025Z,55.90
2022-08-05T05:14:28.080Z,55.71
2022-08-05T05:17:00.214Z,55.13
2022-08-05T05:19:36.341Z,55.04
2022-08-05T05:22:23.488Z,54.81
2022-08-05T05:24:56.804Z,54.32
2022-08-05T05:27:41.162Z,53.81
2022-08-05T05:30:15.548Z,53.60
2022-08-05T05:33:00.415Z,53.11
2022-08-05T05:35:34.313Z,53.28
2022-08-05T05:38:06.451Z,52.82
2022-08-05T05:40:36.455Z,52.53
2022-08-05T05:43:03.805Z,52.48
2022-08-05T05:45:30.568Z,52.42
2022-08-05T05:48:06.660Z,52.29
2022-08-05T05:50:41.089Z,52.22
2022-08-05T05:53:21.131Z,51.52
2022-08-05T05:55:52.264Z,51.73
2022-08-05T05:58:31.380Z,50.60
2022-08-05T06:01:12.464Z,49.71
2022-08-05T06:04:00.871Z,49.92
2022-08-05T06:06:31.374Z,49.29
2022-08-05T06:09:04.717Z,49.03
2022-08-05T06:11:32.791Z,48.86
2022-08-05T06:14:00.838Z,48.76
2022-08-05T06:16:33.040Z,47.93
2022-08-05T06:19:07.348Z,47.30
2022-08-05T06:21:38.364Z,47.03
2022-08-05T06:24:12.260Z,46.55
2022-08-05T06:26:45.857Z,43.94
2022-08-05T06:29:23.642Z,43.95
2022-08-05T06:32:21.272Z,42.97
2022-08-05T06:34:58.382Z,42.28
2022-08-05T06:37:58.011Z,42.39
2022-08-05T06:40:17.921Z,41.79
2022-08-05T06:42:51.746Z,42.30
2022-08-05T06:45:43.943Z,43.35
2022-08-05T06:48:37.107Z,43.05
2022-08-05T06:50:56.968Z,41.95
2022-08-05T06:53:28.195Z,41.12
2022-08-05T06:56:00.604Z,41.13
2022-08-05T06:58:35.124Z,39.97
2022-08-05T07:01:05.538Z,38.77
2022-08-05T07:03:33.393Z,37.50
2022-08-05T07:06:05.980Z,37.05
2022-08-05T07:08:47.477Z,35.77
2022-08-05T07:11:22.216Z,34.23
2022-08-05T07:14:19.975Z,33.37
2022-08-05T07:17:56.503Z,33.55
2022-08-05T07:20:29.792Z,32.87
2022-08-05T07:22:28.321Z,33.03
2022-08-05T07:25:09.494Z,33.65
2022-08-05T07:27:57.336Z,33.03
2022-08-05T07:30:32.813Z,32.17
2022-08-05T07:33:05.474Z,32.68
2022-08-05T07:36:01.939Z,33.41
2022-08-05T07:38:33.428Z,31.92
2022-08-05T07:42:08.073Z,32.62
2022-08-05T07:43:57.660Z,32.45
2022-08-05T07:46:29.627Z,32.15
2022-08-05T07:49:03.852Z,32.01
2022-08-05T07:51:36.868Z,32.28
2022-08-05T07:54:09.812Z,32.36
2022-08-05T07:57:00.516Z,31.48
2022-08-05T07:59:38.109Z,32.39
2022-08-05T08:02:16.014Z,32.79
2022-08-05T08:04:48.785Z,32.68
2022-08-05T08:07:22.396Z,32.67
2022-08-05T08:09:52.273Z,32.84
2022-08-05T08:12:36.960Z,32.45
2022-08-05T08:15:14.052Z,32.41
2022-08-05T08:17:52.565Z,32.71
2022-08-05T08:20:59.921Z,32.24
2022-08-05T08:24:00.407Z,32.62
2022-08-05T08:26:00.197Z,32.46
2022-08-05T08:28:36.293Z,32.67
2022-08-05T08:31:06.314Z,32.28
2022-08-05T08:33:37.389Z,32.38
2022-08-05T08:36:38.670Z,32.64
2022-08-05T08:38:55.391Z,32.36
2022-08-05T08:41:26.009Z,32.21
2022-08-05T08:45:23.174Z,32.93
2022-08-05T08:47:03.363Z,32.52
2022-08-05T08:50:22.856Z,32.39
2022-08-05T08:52:41.617Z,32.79
2022-08-05T08:55:19.531Z,32.59
2022-08-05T08:58:03.163Z,32.79
2022-08-05T09:00:30.828Z,31.38
2022-08-05T09:02:59.002Z,30.88
2022-08-05T09:05:38.309Z,31.14
2022-08-05T09:08:06.051Z,30.42
2022-08-05T09:10:36.965Z,30.32
2022-08-05T09:13:08.080Z,29.30
2022-08-05T09:15:37.778Z,29.32
2022-08-05T09:18:08.733Z,28.80
2022-08-05T09:20:37.666Z,28.08
2022-08-05T09:23:18.511Z,27.38
2022-08-05T09:26:00.113Z,27.45
2022-08-05T09:28:33.593Z,26.81
2022-08-05T09:31:23.330Z,27.18
2022-08-05T09:34:01.361Z,26.32
2022-08-05T09:36:55.022Z,26.04
2022-08-05T09:39:27.513Z,26.55
2022-08-05T09:42:11.440Z,26.36
2022-08-05T09:44:49.453Z,26.11
2022-08-05T09:47:21.126Z,25.87
2022-08-05T09:50:02.476Z,25.98
2022-08-05T09:52:33.934Z,26.47
2022-08-05T09:55:57.260Z,26.45
2022-08-05T09:58:00.167Z,26.62
2022-08-05T10:00:30.532Z,26.66
2022-08-05T10:02:58.430Z,26.78
2022-08-05T10:05:28.162Z,27.03
2022-08-05T10:08:11.109Z,27.16
2022-08-05T10:10:43.657Z,27.46
2022-08-05T10:13:10.956Z,27.44
2022-08-05T10:15:43.351Z,27.55
2022-08-05T10:18:23.543Z,27.45
2022-08-05T10:21:06.339Z,28.04
2022-08-05T10:23:59.946Z,27.84
2022-08-05T10:26:32.321Z,27.70
2022-08-05T10:29:00.692Z,27.54
2022-08-05T10:32:54.510Z,27.63
2022-08-05T10:34:16.931Z,27.62
2022-08-05T10:36:45.154Z,27.46
2022-08-05T10:39:58.977Z,27.96
2022-08-05T10:42:32.415Z,28.24
2022-08-05T10:45:20.980Z,27.42
2022-08-05T10:48:29.694Z,27.38
2022-08-05T10:51:21.759Z,27.33
2022-08-05T10:54:01.943Z,27.42
2022-08-05T10:56:45.840Z,26.75
2022-08-05T11:00:03.501Z,27.04
2022-08-05T11:02:14.764Z,27.14
2022-08-05T11:04:59.025Z,26.50
2022-08-05T11:07:33.126Z,26.70
2022-08-05T11:10:23.040Z,27.33
2022-08-05T11:12:56.521Z,26.87
2022-08-05T11:15:59.446Z,26.77
2022-08-05T11:18:46.963Z,25.91
2022-08-05T11:21:48.773Z,26.15
2022-08-05T11:24:30.239Z,26.11
2022-08-05T11:27:45.833Z,26.28
2022-08-05T11:30:18.356Z,26.07
2022-08-05T11:32:45.173Z,25.70
2022-08-05T11:36:07.402Z,25.60
2022-08-05T11:38:45.536Z,25.57
2022-08-05T11:41:54.347Z,25.54
2022-08-05T11:44:40.752Z,25.46
2022-08-05T11:47:12.020Z,25.05
2022-08-05T11:49:43.199Z,24.71
2022-08-05T11:52:11.451Z,25.13
2022-08-05T11:54:40.550Z,24.99
2022-08-05T11:57:39.397Z,25.29
2022-08-05T11:59:55.483Z,24.66
2022-08-05T12:02:33.351Z,24.82
2022-08-05T12:05:06.982Z,24.39
2022-08-05T12:08:03.577Z,24.60
2022-08-05T12:10:38.672Z,24.66
2022-08-05T12:13:28.330Z,24.57
2022-08-05T12:16:14.959Z,24.47
2022-08-05T12:18:52.105Z,24.64
2022-08-05T12:21:30.164Z,24.37
2022-08-05T12:24:13.846Z,23.90
2022-08-05T12:26:52.242Z,24.27
2022-08-05T12:29:24.721Z,24.22
2022-08-05T12:31:54.329Z,24.16
2022-08-05T12:34:26.120Z,23.66
2022-08-05T12:36:54.573Z,23.63
2022-08-05T12:39:28.133Z,23.16
2022-08-05T12:42:02.118Z,23.66
2022-08-05T12:44:34.058Z,23.78
2022-08-05T12:47:02.232Z,23.56
2022-08-05T12:50:04.340Z,23.51
2022-08-05T12:52:42.308Z,23.82
2022-08-05T12:55:26.183Z,23.51
2022-08-05T12:58:49.608Z,23.35
2022-08-05T13:02:00.554Z,22.82
2022-08-05T13:03:33.970Z,22.87
2022-08-05T13:06:13.028Z,22.47
2022-08-05T13:08:40.274Z,22.42
2022-08-05T13:11:07.416Z,22.74
2022-08-05T13:14:04.754Z,22.72
2022-08-05T13:16:28.042Z,22.90
2022-08-05T13:18:59.181Z,22.44
2022-08-05T13:21:27.905Z,22.19
2022-08-05T13:23:55.440Z,22.12
2022-08-05T13:26:29.789Z,22.15
2022-08-05T13:28:57.427Z,22.12
2022-08-05T13:32:03.168Z,22.08
2022-08-05T13:34:23.914Z,22.27
2022-08-05T13:36:54.140Z,22.01
2022-08-05T13:40:13.877Z,22.26
2022-08-05T13:42:14.585Z,22.95
2022-08-05T13:44:46.281Z,23.41
2022-08-05T13:47:35.909Z,23.32
2022-08-05T13:50:04.670Z,23.09
2022-08-05T13:52:35.460Z,23.68
2022-08-05T13:55:07.807Z,23.27
2022-08-05T13:57:50.810Z,23.52
2022-08-05T14:00:26.942Z,23.25
2022-08-05T14:02:58.235Z,23.37
2022-08-05T14:05:48.620Z,23.36
2022-08-05T14:08:21.324Z,23.33
2022-08-05T14:11:03.255Z,23.24
2022-08-05T14:13:42.718Z,23.32
2022-08-05T14:16:11.596Z,23.77
2022-08-05T14:18:43.652Z,24.16
2022-08-05T14:22:10.388Z,24.20
2022-08-05T14:23:58.163Z,24.26
2022-08-05T14:26:38.286Z,24.23
2022-08-05T14:29:16.146Z,24.69
2022-08-05T14:32:02.459Z,24.76
2022-08-05T14:34:35.127Z,24.89
2022-08-05T14:37:04.424Z,24.79
2022-08-05T14:39:51.188Z,24.78
2022-08-05T14:42:29.421Z,24.90
2022-08-05T14:44:56.847Z,25.27
2022-08-05T14:48:03.318Z,25.21
2022-08-05T14:50:15.691Z,25.24
2022-08-05T14:52:53.127Z,25.59
2022-08-05T14:55:22.173Z,25.37
2022-08-05T14:57:56.037Z,25.42
2022-08-05T15:00:27.929Z,25.12
2022-08-05T15:02:55.379Z,25.34
2022-08-05T15:05:22.632Z,25.55
2022-08-05T15:08:09.037Z,25.31
2022-08-05T15:10:46.198Z,25.64
2022-08-05T15:13:13.816Z,25.11
2022-08-05T15:15:55.585Z,25.47
2022-08-05T15:18:24.678Z,25.40
2022-08-05T15:20:52.278Z,25.85
2022-08-05T15:23:19.708Z,25.70
2022-08-05T15:25:52.398Z,25.75
2022-08-05T15:28:27.401Z,25.95
2022-08-05T15:30:55.203Z,25.65
2022-08-05T15:34:04.146Z,25.85
2022-08-05T15:36:17.781Z,26.10
2022-08-05T15:40:41.208Z,25.72
2022-08-05T15:41:57.591Z,26.01
2022-08-05T15:44:27.782Z,26.18
2022-08-05T15:46:55.665Z,26.50
2022-08-05T15:49:40.886Z,26.62
2022-08-05T15:52:16.626Z,26.67
2022-08-05T15:54:56.697Z,26.86
2022-08-05T15:57:26.288Z,27.03
2022-08-05T15:59:59.649Z,26.67
2022-08-05T16:02:31.984Z,26.71
2022-08-05T16:04:59.846Z,26.52
2022-08-05T16:07:29.389Z,26.61
2022-08-05T16:09:57.022Z,26.91
2022-08-05T16:12:24.086Z,27.07
2022-08-05T16:14:51.021Z,27.10
2022-08-05T16:17:17.793Z,26.99
2022-08-05T16:20:04.716Z,27.25
2022-08-05T16:22:34.376Z,27.43
2022-08-05T16:25:08.015Z,27.02
2022-08-05T16:28:00.093Z,27.08
2022-08-05T16:30:29.046Z,26.99
2022-08-05T16:32:57.547Z,27.08
2022-08-05T16:35:27.972Z,27.05
2022-08-05T16:38:02.977Z,27.34
2022-08-05T16:40:47.651Z,27.63
2022-08-05T16:43:19.285Z,27.24
2022-08-05T16:46:05.422Z,26.97
2022-08-05T16:48:35.859Z,27.18
2022-08-05T16:51:03.775Z,27.89
2022-08-05T16:54:03.947Z,28.32
2022-08-05T16:56:23.989Z,28.61
2022-08-05T16:58:51.041Z,28.24
2022-08-05T17:01:18.919Z,28.32
2022-08-05T17:03:46.371Z,28.67
2022-08-05T17:06:16.530Z,28.92
2022-08-05T17:08:53.801Z,29.01
2022-08-05T17:11:23.725Z,29.15
2022-08-05T17:14:00.306Z,28.93
2022-08-05T17:16:36.547Z,29.31
2022-08-05T17:19:07.409Z,29.43
2022-08-05T17:21:35.639Z,29.57
2022-08-05T17:24:19.544Z,29.54
2022-08-05T17:26:57.630Z,29.84
2022-08-05T17:29:33.523Z,29.88
2022-08-05T17:32:16.696Z,29.95
2022-08-05T17:34:47.509Z,30.04
2022-08-05T17:37:35.933Z,30.08
2022-08-05T17:40:10.107Z,30.40
2022-08-05T17:42:42.863Z,30.46
2022-08-05T17:45:20.330Z,30.59
2022-08-05T17:47:54.638Z,31.01
2022-08-05T17:50:29.477Z,31.38
2022-08-05T17:52:59.275Z,31.73
2022-08-05T17:55:37.110Z,31.87
2022-08-05T17:58:09.407Z,32.26
2022-08-05T18:00:40.818Z,32.38
2022-08-05T18:03:55.901Z,33.24
2022-08-05T18:06:11.882Z,33.40
2022-08-05T18:08:45.478Z,34.01
2022-08-05T18:11:23.261Z,34.34
2022-08-05T18:13:52.229Z,34.75
2022-08-05T18:16:20.354Z,34.67
2022-08-05T18:18:48.007Z,34.32
2022-08-05T18:21:20.048Z,34.31
2022-08-05T18:23:53.651Z,34.87
2022-08-05T18:26:28.973Z,35.46
2022-08-05T18:28:59.210Z,36.21
2022-08-05T18:31:32.919Z,36.53
2022-08-05T18:34:06.022Z,37.14
2022-08-05T18:36:37.246Z,37.98
2022-08-05T18:39:09.728Z,39.08
2022-08-05T18:41:53.539Z,39.39
2022-08-05T18:44:34.684Z,39.19
2022-08-05T18:47:03.760Z,38.97
2022-08-05T18:49:58.358Z,38.77
2022-08-05T18:52:36.016Z,39.80
2022-08-05T18:55:05.829Z,40.17
2022-08-05T18:57:43.339Z,39.36
2022-08-05T19:00:20.966Z,40.63
2022-08-05T19:02:55.520Z,40.49
2022-08-05T19:06:11.758Z,41.06
2022-08-05T19:08:12.254Z,41.19
2022-08-05T19:10:40.590Z,41.58
2022-08-05T19:13:12.350Z,41.20
2022-08-05T19:15:59.841Z,41.10
2022-08-05T19:18:31.547Z,42.04
2022-08-05T19:20:59.110Z,42.03
2022-08-05T19:24:07.723Z,41.66
2022-08-05T19:26:14.090Z,41.45
2022-08-05T19:28:43.165Z,41.66
2022-08-05T19:31:12.918Z,42.34
2022-08-05T19:33:48.426Z,42.70
2022-08-05T19:36:25.684Z,42.73
2022-08-05T19:39:01.197Z,42.67
2022-08-05T19:41:57.995Z,42.17
2022-08-05T19:44:18.386Z,41.86
2022-08-05T19:46:46.594Z,41.96
2022-08-05T19:49:16.812Z,41.95
2022-08-05T19:52:05.733Z,42.24
2022-08-05T19:54:34.333Z,42.44
2022-08-05T19:57:06.839Z,42.74
2022-08-05T20:00:01.175Z,42.74
2022-08-05T20:02:29.823Z,42.81
2022-08-05T20:04:59.820Z,43.28
2022-08-05T20:07:46.591Z,43.13
2022-08-05T20:10:15.557Z,43.85
2022-08-05T20:12:47.819Z,43.66
2022-08-05T20:15:49.002Z,43.68
2022-08-05T20:18:10.457Z,44.43
2022-08-05T20:20:56.320Z,44.60
2022-08-05T20:23:39.357Z,44.58
2022-08-05T20:26:16.360Z,44.39
2022-08-05T20:28:56.284Z,44.94
2022-08-05T20:31:36.960Z,45.09
2022-08-05T20:34:11.425Z,44.96
2022-08-05T20:36:43.376Z,45.04
2022-08-05T20:39:13.273Z,45.41
2022-08-05T20:41:43.167Z,45.23
2022-08-05T20:44:17.876Z,45.55
2022-08-05T20:46:57.387Z,46.01
2022-08-05T20:49:25.949Z,45.71
2022-08-05T20:51:54.501Z,45.66
2022-08-05T20:54:24.915Z,45.97
2022-08-05T20:56:52.550Z,45.66
2022-08-05T20:59:26.438Z,45.65
2022-08-05T21:01:55.885Z,46.07
2022-08-05T21:04:26.906Z,45.78
2022-08-05T21:06:54.575Z,45.93
2022-08-05T21:09:22.634Z,46.03
2022-08-05T21:12:07.579Z,45.73
2022-08-05T21:14:38.352Z,45.10
2022-08-05T21:17:06.188Z,45.11
2022-08-05T21:19:47.331Z,45.53
2022-08-05T21:22:21.865Z,45.54
2022-08-05T21:24:53.690Z,45.33
2022-08-05T21:27:25.327Z,45.32
2022-08-05T21:29:55.863Z,45.25
2022-08-05T21:32:26.762Z,45.57
2022-08-05T21:35:08.824Z,46.03
2022-08-05T21:37:53.181Z,46.23
2022-08-05T21:40:22.641Z,46.19
2022-08-05T21:42:52.881Z,46.11
2022-08-05T21:45:24.767Z,46.37
2022-08-05T21:47:56.384Z,46.47
2022-08-05T21:50:26.013Z,46.24
2022-08-05T21:52:53.776Z,46.08
2022-08-05T21:56:01.418Z,46.32
2022-08-05T21:58:12.741Z,46.45
2022-08-05T22:00:40.146Z,46.11
2022-08-05T22:03:10.011Z,46.59
2022-08-05T22:05:49.261Z,46.53
2022-08-05T22:08:22.090Z,46.65
2022-08-05T22:10:51.823Z,46.60
2022-08-05T22:14:31.362Z,46.66
2022-08-05T22:16:15.756Z,46.75
2022-08-05T22:18:53.729Z,47.05
2022-08-05T22:21:25.376Z,46.99
2022-08-05T22:24:13.031Z,47.08
2022-08-05T22:27:17.582Z,47.01
2022-08-05T22:29:44.544Z,46.71
2022-08-05T22:32:12.936Z,46.41
2022-08-05T22:34:45.845Z,46.45
2022-08-05T22:37:13.314Z,46.44
2022-08-05T22:39:40.304Z,46.10
2022-08-05T22:42:12.463Z,46.22
2022-08-05T22:44:48.207Z,46.43
2022-08-05T22:47:29.170Z,46.52
2022-08-05T22:50:21.666Z,46.52
2022-08-05T22:52:47.984Z,46.29
2022-08-05T22:55:19.041Z,46.26
2022-08-05T22:57:49.706Z,46.74
2022-08-05T23:00:20.933Z,46.40
2022-08-05T23:02:50.007Z,46.47
2022-08-05T23:05:18.231Z,46.12
2022-08-05T23:07:49.655Z,46.11
2022-08-05T23:10:19.894Z,46.14
2022-08-05T23:12:51.165Z,46.36
2022-08-05T23:15:18.604Z,46.30
2022-08-05T23:18:00.409Z,46.36
2022-08-05T23:20:30.309Z,46.32
2022-08-05T23:22:58.678Z,46.21
2022-08-05T23:25:51.862Z,46.26
2022-08-05T23:28:15.941Z,46.33
2022-08-05T23:30:53.030Z,46.37
2022-08-05T23:34:03.361Z,46.33
2022-08-05T23:36:10.133Z,46.50
2022-08-05T23:38:38.018Z,46.43
2022-08-05T23:41:05.068Z,46.62
2022-08-05T23:44:03.129Z,46.84
2022-08-05T23:46:21.025Z,47.06
2022-08-05T23:49:00.919Z,47.12
2022-08-05T23:51:54.272Z,47.70
2022-08-05T23:54:38.156Z,47.68
2022-08-05T23:57:06.521Z,47.36
